This is the latest recevied weather packets stored in our database for station/object SALIDA. If no packets are shown the sender has not sent any weather packets the latest 1 day(s).
| Time | Temp. | Humidity | Pressure | Rain* | Wind** | Luminosity | Snow |
|---|---|---|---|---|---|---|---|
| 1836274228 | 18.33° C | 41% | 1010.9 hPa | 0 mm | 0.45 m/s, 216° | - | - |
| 1836274078 | 18.33° C | 43% | 1010.8 hPa | 0 mm | 1.34 m/s, 335° | - | - |
| 1778033784 | 3.33° C | 81% | 1001 hPa | 0 mm | 4.92 m/s, 134° | - | - |
| 1778032884 | 3.33° C | 80% | 999.8 hPa | 0 mm | 4.92 m/s, 146° | - | - |
| 1778031984 | 3.89° C | 79% | 999.4 hPa | 0 mm | 5.81 m/s, 134° | - | - |
| 1778031084 | 3.89° C | 79% | 998.9 hPa | 0 mm | 5.36 m/s, 146° | - | - |
| 1778030184 | 3.89° C | 78% | 998.7 hPa | 0 mm | 5.81 m/s, 124° | - | - |
| 1778029284 | 4.44° C | 77% | 998.1 hPa | 0 mm | 4.92 m/s, 193° | - | - |
| 1778028384 | 5° C | 75% | 997.7 hPa | 0 mm | 5.81 m/s, 240° | - | - |
| 1778027484 | 5.56° C | 74% | 997.4 hPa | 0 mm | 4.47 m/s, 214° | - | - |
| 1778026584 | 5.56° C | 75% | 997.5 hPa | 0 mm | 4.92 m/s, 134° | - | - |
| 1778025684 | 5° C | 76% | 997.3 hPa | 0 mm | 4.02 m/s, 165° | - | - |
| 1778024784 | 5° C | 76% | 997.6 hPa | 0 mm | 3.58 m/s, 274° | - | - |
| 1778023884 | 5° C | 75% | 997.7 hPa | 0 mm | 3.58 m/s, 142° | - | - |
| 1778022985 | 5° C | 75% | 997.7 hPa | 0 mm | 4.02 m/s, 152° | - | - |
| 1778022085 | 5° C | 75% | 997.4 hPa | 0 mm | 4.47 m/s, 203° | - | - |
| 1778021185 | 4.44° C | 76% | 997.7 hPa | 0 mm | 5.81 m/s, 149° | - | - |
| 1778020285 | 4.44° C | 75% | 997.9 hPa | 0 mm | 4.47 m/s, 177° | - | - |
| 1778019385 | 4.44° C | 76% | 998.4 hPa | 0 mm | 4.47 m/s, 130° | - | - |
| 1778018485 | 5° C | 75% | 998 hPa | 0 mm | 4.02 m/s, 135° | - | - |
| 1778017585 | 5.56° C | 73% | 997.8 hPa | 0 mm | 4.47 m/s, 121° | - | - |
| 1778016685 | 6.11° C | 70% | 997.9 hPa | 0 mm | 5.36 m/s, 136° | - | - |
| 1778015785 | 6.11° C | 71% | 997.8 hPa | 0 mm | 5.36 m/s, 134° | - | - |
| 1778014885 | 6.67° C | 71% | 997.6 hPa | 0 mm | 4.47 m/s, 138° | - | - |
| 1778013985 | 7.22° C | 70% | 997.6 hPa | 0 mm | 4.47 m/s, 124° | - | - |
* Rain latest hour (hover to see other rain measurements)
** Current wind speed in m/s (hover to see current wind gust speed)